Time;durP1;ratioP1;P1;durP2;ratioP2;P2;SDS_P1;SDS_P2;PMS_P1;PMS_P2;Temp;Humidity;BMP_temperature;BMP_pressure;BME280_temperature;BME280_humidity;BME280_pressure;Samples;Min_cycle;Max_cycle;Signal;HPM_P1;HPM_P2
2022/03/14 00:01:53;;;;;;;1.55;0.60;;;;;;;20.14;31.57;101550.34;7350025;19;128485;-56
2022/03/14 00:04:20;;;;;;;1.42;0.60;;;;;;;20.13;31.56;101549.47;7348390;19;129198;-58
2022/03/14 00:06:48;;;;;;;2.05;0.77;;;;;;;20.11;31.58;101559.16;7351249;19;128475;-59
2022/03/14 00:09:17;;;;;;;1.70;0.70;;;;;;;20.09;31.14;101555.75;7350296;19;129134;-57
2022/03/14 00:11:44;;;;;;;1.42;0.77;;;;;;;20.09;31.41;101569.66;7351472;19;129560;-56
2022/03/14 00:14:11;;;;;;;1.05;0.70;;;;;;;20.07;31.50;101567.13;7348534;19;129320;-57
2022/03/14 00:16:45;;;;;;;1.45;0.70;;;;;;;20.07;31.37;101569.03;7349723;19;129440;-58
2022/03/14 00:19:13;;;;;;;1.25;0.60;;;;;;;20.06;31.58;101570.16;7349700;19;129550;-58
2022/03/14 00:21:41;;;;;;;2.60;0.73;;;;;;;20.06;31.09;101572.94;7349780;19;127930;-56
2022/03/14 00:24:11;;;;;;;0.80;0.50;;;;;;;20.04;31.36;101577.88;7348417;19;129916;-59
2022/03/14 00:26:39;;;;;;;0.70;0.65;;;;;;;20.05;31.19;101579.56;7350648;19;128713;-57
2022/03/14 00:29:07;;;;;;;1.88;0.82;;;;;;;20.03;31.11;101576.19;7350391;19;129475;-58
2022/03/14 00:31:34;;;;;;;2.35;0.60;;;;;;;20.01;31.54;101572.81;7350069;19;128227;-55
2022/03/14 00:34:02;;;;;;;1.20;0.73;;;;;;;19.99;31.38;101585.00;7349713;19;128548;-55
2022/03/14 00:36:29;;;;;;;0.88;0.70;;;;;;;19.99;31.59;101582.22;7349881;19;129228;-56
2022/03/14 00:38:55;;;;;;;2.47;0.63;;;;;;;19.98;31.40;101590.75;7349334;19;129160;-57
2022/03/14 00:41:23;;;;;;;0.75;0.60;;;;;;;19.96;31.60;101596.53;7348145;19;128271;-58
2022/03/14 00:43:51;;;;;;;1.35;0.70;;;;;;;19.94;31.38;101590.38;7347411;19;128601;-59
2022/03/14 00:46:18;;;;;;;0.93;0.70;;;;;;;19.92;31.26;101592.56;7349149;19;129449;-55
2022/03/14 00:48:46;;;;;;;1.38;0.70;;;;;;;19.91;31.60;101592.78;7350497;19;128311;-57
2022/03/14 00:51:13;;;;;;;0.57;0.57;;;;;;;19.90;31.18;101593.88;7349866;19;128532;-56
2022/03/14 00:53:40;;;;;;;1.35;0.90;;;;;;;19.89;31.47;101597.72;7350048;19;129365;-58
2022/03/14 00:56:07;;;;;;;0.63;0.60;;;;;;;19.88;31.39;101608.00;7348582;19;128161;-58
2022/03/14 00:58:34;;;;;;;1.23;0.63;;;;;;;19.87;31.49;101606.31;7348127;19;127754;-58
2022/03/14 01:01:02;;;;;;;0.80;0.50;;;;;;;19.86;31.57;101610.16;7349501;19;128309;-57
2022/03/14 01:03:29;;;;;;;1.15;0.70;;;;;;;19.85;31.46;101611.25;7350150;19;130019;-57
2022/03/14 01:05:56;;;;;;;1.02;0.73;;;;;;;19.83;31.73;101622.59;7347626;19;130645;-58
2022/03/14 01:08:23;;;;;;;0.52;0.52;;;;;;;19.82;31.31;101626.47;7348513;19;128342;-57
2022/03/14 01:10:50;;;;;;;0.43;0.43;;;;;;;19.81;31.42;101626.72;7349480;19;128515;-57
2022/03/14 01:13:18;;;;;;;1.40;0.70;;;;;;;19.80;31.54;101627.78;7347998;19;128862;-58
2022/03/14 01:15:46;;;;;;;0.50;0.50;;;;;;;19.78;31.29;101639.13;7346919;19;128526;-57
2022/03/14 01:18:13;;;;;;;1.77;0.75;;;;;;;19.79;31.62;101648.31;7346632;19;127846;-59
2022/03/14 01:20:41;;;;;;;1.45;0.60;;;;;;;19.78;31.60;101658.56;7348407;19;128663;-58
2022/03/14 01:23:08;;;;;;;0.75;0.50;;;;;;;19.77;31.80;101661.56;7348790;19;129377;-58
2022/03/14 01:25:37;;;;;;;4.50;0.73;;;;;;;19.76;31.49;101666.25;7347154;19;128244;-58
2022/03/14 01:28:04;;;;;;;0.88;0.63;;;;;;;19.75;31.83;101663.75;7347693;19;128316;-56
2022/03/14 01:30:31;;;;;;;1.40;0.60;;;;;;;19.74;31.83;101674.00;7348604;19;129157;-58
2022/03/14 01:32:59;;;;;;;1.02;0.80;;;;;;;19.74;31.72;101678.69;7347412;19;129327;-57
2022/03/14 01:35:26;;;;;;;0.70;0.60;;;;;;;19.74;31.67;101678.69;7345961;19;129405;-58
2022/03/14 01:37:54;;;;;;;2.28;0.80;;;;;;;19.72;31.79;101687.28;7347759;19;128113;-58
2022/03/14 01:40:22;;;;;;;1.15;0.65;;;;;;;19.72;31.86;101692.81;7348537;19;129572;-58
2022/03/14 01:42:49;;;;;;;3.42;0.60;;;;;;;19.71;31.67;101690.25;7347815;19;128236;-59
2022/03/14 01:45:17;;;;;;;6.50;0.82;;;;;;;19.69;31.73;101694.13;7345385;19;128171;-58
2022/03/14 01:47:45;;;;;;;0.85;0.55;;;;;;;19.68;31.87;101697.16;7349155;19;127631;-57
2022/03/14 01:50:13;;;;;;;4.60;0.70;;;;;;;19.67;31.49;101699.09;7347960;19;128938;-59
2022/03/14 01:52:41;;;;;;;3.42;0.88;;;;;;;19.67;31.80;101712.97;7347577;19;129493;-58
2022/03/14 01:55:09;;;;;;;2.53;0.70;;;;;;;19.66;31.69;101710.41;7346771;19;128961;-57
2022/03/14 01:57:36;;;;;;;1.63;0.60;;;;;;;19.65;31.80;101719.81;7346305;19;127547;-56
2022/03/14 02:00:06;;;;;;;2.08;0.65;;;;;;;19.64;31.64;101712.56;7347754;19;128468;-58
2022/03/14 02:02:33;;;;;;;2.85;0.70;;;;;;;19.63;31.57;101725.59;7346082;19;129346;-58
2022/03/14 02:05:00;;;;;;;1.73;0.57;;;;;;;19.62;31.60;101721.13;7345292;19;129424;-57
2022/03/14 02:07:27;;;;;;;3.80;0.77;;;;;;;19.62;31.69;101725.84;7347794;19;128920;-59
2022/03/14 02:09:54;;;;;;;3.60;0.70;;;;;;;19.62;31.64;101732.25;7346929;19;128929;-59
2022/03/14 02:12:21;;;;;;;1.67;0.70;;;;;;;19.61;31.75;101730.53;7346134;19;129238;-59
2022/03/14 02:14:48;;;;;;;3.42;0.70;;;;;;;19.60;31.65;101734.41;7345756;19;128937;-56
2022/03/14 02:17:17;;;;;;;1.23;0.75;;;;;;;19.60;31.50;101725.22;7347639;19;128234;-58
2022/03/14 02:19:44;;;;;;;3.40;0.82;;;;;;;19.57;31.50;101734.84;7347543;19;129675;-58
2022/03/14 02:22:13;;;;;;;0.85;0.50;;;;;;;19.56;31.64;101735.97;7347400;19;128240;-59
2022/03/14 02:24:42;;;;;;;1.50;0.70;;;;;;;19.56;31.45;101730.41;7346543;19;128707;-55
2022/03/14 02:27:09;;;;;;;3.60;0.75;;;;;;;19.55;31.93;101737.03;7347338;19;127597;-57
2022/03/14 02:29:36;;;;;;;5.93;0.60;;;;;;;19.55;31.42;101748.13;7349340;19;129131;-56
2022/03/14 02:32:03;;;;;;;1.88;0.60;;;;;;;19.53;31.76;101751.13;7354294;19;129320;-59
2022/03/14 02:34:30;;;;;;;2.63;0.60;;;;;;;19.53;31.74;101753.91;7354593;19;129652;-58
2022/03/14 02:36:57;;;;;;;1.65;0.60;;;;;;;19.54;31.71;101763.09;7353606;19;129198;-57
2022/03/14 02:39:24;;;;;;;2.30;0.70;;;;;;;19.54;31.86;101774.19;7353356;19;128441;-59
2022/03/14 02:41:51;;;;;;;1.50;0.45;;;;;;;19.52;31.81;101759.69;7352810;19;129091;-58
2022/03/14 02:44:17;;;;;;;1.15;0.50;;;;;;;19.52;31.68;101770.81;7352581;19;128592;-57
2022/03/14 02:46:44;;;;;;;1.58;0.57;;;;;;;19.51;31.56;101769.94;7354026;19;128097;-58
2022/03/14 02:49:12;;;;;;;1.08;0.60;;;;;;;19.50;31.83;101778.50;7354809;19;128061;-58
2022/03/14 02:51:39;;;;;;;2.28;0.65;;;;;;;19.51;31.88;101774.66;7353986;19;128241;-58
2022/03/14 02:54:08;;;;;;;5.43;1.00;;;;;;;19.49;31.43;101771.25;7352882;19;129002;-58
2022/03/14 02:56:39;;;;;;;4.78;0.80;;;;;;;19.48;31.84;101777.88;7352601;19;127925;-58
2022/03/14 02:59:07;;;;;;;1.27;0.70;;;;;;;19.49;31.87;101782.34;7351641;19;129398;-57
2022/03/14 03:01:35;;;;;;;2.22;0.70;;;;;;;19.48;31.43;101794.53;7352094;19;129315;-58
2022/03/14 03:04:02;;;;;;;2.53;0.60;;;;;;;19.47;31.48;101801.16;7351893;19;128364;-58
2022/03/14 03:06:29;;;;;;;2.65;0.52;;;;;;;19.46;31.76;101811.44;7349984;19;128475;-58
2022/03/14 03:08:55;;;;;;;1.27;0.70;;;;;;;19.46;31.89;101810.56;7354063;19;128355;-58
2022/03/14 03:11:22;;;;;;;1.83;0.77;;;;;;;19.45;31.71;101812.50;7353262;19;128211;-57
2022/03/14 03:13:52;;;;;;;0.88;0.60;;;;;;;19.45;31.61;101811.63;7351643;19;128597;-58
2022/03/14 03:16:18;;;;;;;1.60;0.68;;;;;;;19.44;31.52;101821.91;7353565;19;128278;-57
2022/03/14 03:18:45;;;;;;;2.10;0.70;;;;;;;19.44;31.46;101834.94;7351613;19;128249;-58
2022/03/14 03:21:12;;;;;;;1.67;0.60;;;;;;;19.43;31.59;101838.78;7353264;19;128288;-58
2022/03/14 03:23:40;;;;;;;0.98;0.57;;;;;;;19.42;31.66;101853.75;7352383;19;128487;-58
2022/03/14 03:26:07;;;;;;;1.13;0.63;;;;;;;19.41;31.48;101852.88;7349259;19;128336;-59
2022/03/14 03:28:37;;;;;;;1.40;0.70;;;;;;;19.40;31.64;101861.44;7350194;19;128293;-57
2022/03/14 03:31:09;;;;;;;0.60;0.40;;;;;;;19.41;31.70;101869.53;7351786;19;129799;-58
2022/03/14 03:33:37;;;;;;;1.70;0.47;;;;;;;19.40;31.52;101867.00;7351462;19;129715;-57
2022/03/14 03:36:05;;;;;;;2.70;0.40;;;;;;;19.38;31.68;101864.47;7352906;19;128255;-58
2022/03/14 03:38:32;;;;;;;1.73;0.60;;;;;;;19.37;31.57;101874.69;7351920;19;127571;-57
2022/03/14 03:40:59;;;;;;;3.30;0.60;;;;;;;19.36;31.67;101886.88;7351614;19;128359;-58
2022/03/14 03:43:26;;;;;;;1.60;0.70;;;;;;;19.36;31.67;101889.66;7352604;19;128172;-59
2022/03/14 03:45:52;;;;;;;1.42;0.55;;;;;;;19.37;31.81;101894.13;7351032;19;128369;-57
2022/03/14 03:48:20;;;;;;;2.03;0.70;;;;;;;19.35;31.76;101901.81;7351092;19;129195;-58
2022/03/14 03:50:47;;;;;;;1.17;0.80;;;;;;;19.35;31.43;101915.69;7349793;19;128688;-58
2022/03/14 03:53:14;;;;;;;1.15;0.50;;;;;;;19.34;31.73;101922.31;7349188;19;128755;-56
2022/03/14 03:55:41;;;;;;;1.55;0.60;;;;;;;19.35;31.92;101929.56;7351417;19;128305;-57
2022/03/14 03:58:08;;;;;;;1.55;0.60;;;;;;;19.35;31.90;101921.25;7351682;19;128260;-58
2022/03/14 04:00:35;;;;;;;1.60;0.70;;;;;;;19.34;31.56;101927.88;7350732;19;129262;-58
2022/03/14 04:03:03;;;;;;;2.40;0.50;;;;;;;19.34;31.47;101929.81;7350453;19;129540;-57
2022/03/14 04:05:30;;;;;;;1.00;0.50;;;;;;;19.32;31.81;101932.78;7349268;19;127971;-57
2022/03/14 04:07:58;;;;;;;1.35;0.50;;;;;;;19.32;31.77;101943.03;7350468;19;127646;-57
2022/03/14 04:10:28;;;;;;;1.10;0.52;;;;;;;19.31;31.64;101942.22;7347814;19;128247;-57
2022/03/14 04:12:59;;;;;;;1.67;0.60;;;;;;;19.31;31.59;101942.22;7350113;19;129413;-56
2022/03/14 04:15:27;;;;;;;1.10;0.50;;;;;;;19.30;31.98;101950.75;7350901;19;128128;-56
2022/03/14 04:17:57;;;;;;;2.03;0.68;;;;;;;19.28;31.88;101948.22;7351003;19;129093;-58
2022/03/14 04:20:24;;;;;;;1.88;0.68;;;;;;;19.28;31.50;101953.75;7351262;19;128312;-59
2022/03/14 04:22:52;;;;;;;1.85;0.60;;;;;;;19.28;31.93;101964.84;7350325;19;128319;-57
2022/03/14 04:25:18;;;;;;;0.85;0.50;;;;;;;19.28;31.98;101975.94;7350943;19;128522;-56
2022/03/14 04:27:45;;;;;;;0.98;0.50;;;;;;;19.29;31.71;101966.56;7350659;19;128998;-55
2022/03/14 04:30:13;;;;;;;2.60;0.52;;;;;;;19.28;31.76;101980.63;7350689;19;128729;-58
2022/03/14 04:32:40;;;;;;;1.08;0.63;;;;;;;19.26;31.66;101978.09;7351562;19;128235;-55
2022/03/14 04:35:07;;;;;;;0.73;0.50;;;;;;;19.26;31.58;101989.19;7350718;19;129367;-58
2022/03/14 04:37:34;;;;;;;0.95;0.60;;;;;;;19.26;31.49;101994.75;7350001;19;129007;-58
2022/03/14 04:40:01;;;;;;;0.80;0.40;;;;;;;19.24;31.95;101990.50;7349069;19;129212;-58
2022/03/14 04:42:28;;;;;;;0.98;0.50;;;;;;;19.23;31.71;101984.09;7350483;19;128224;-56
2022/03/14 04:44:55;;;;;;;0.80;0.50;;;;;;;19.24;31.99;101996.88;7349645;19;129584;-59
2022/03/14 04:47:21;;;;;;;1.67;0.52;;;;;;;19.22;31.97;101996.25;7351272;19;128170;-57
2022/03/14 04:49:48;;;;;;;1.02;0.50;;;;;;;19.22;31.68;102004.56;7351308;19;129201;-58
2022/03/14 04:52:15;;;;;;;0.50;0.50;;;;;;;19.22;31.88;102016.53;7349879;19;128245;-58
2022/03/14 04:54:43;;;;;;;1.30;0.68;;;;;;;19.25;32.00;102014.41;7345850;19;128161;-57
2022/03/14 04:57:10;;;;;;;1.00;0.70;;;;;;;19.30;31.67;102023.75;7350149;19;128870;-58
2022/03/14 04:59:37;;;;;;;1.08;0.65;;;;;;;19.40;31.68;102033.50;7349375;19;129556;-58
2022/03/14 05:02:04;;;;;;;1.05;0.50;;;;;;;19.52;31.65;102032.53;7348767;19;129317;-57
2022/03/14 05:04:31;;;;;;;1.55;0.70;;;;;;;19.69;31.50;102038.38;7349474;19;128983;-57
2022/03/14 05:06:57;;;;;;;1.30;0.50;;;;;;;19.89;31.44;102042.91;7346844;19;128428;-58
2022/03/14 05:09:25;;;;;;;0.55;0.40;;;;;;;20.08;30.82;102056.84;7347808;19;129524;-57
2022/03/14 05:11:52;;;;;;;0.95;0.50;;;;;;;20.24;30.96;102044.31;7349741;19;129283;-58
2022/03/14 05:14:18;;;;;;;1.65;0.60;;;;;;;20.40;31.02;102054.81;7350958;19;127981;-55
2022/03/14 05:16:48;;;;;;;1.33;0.52;;;;;;;20.52;30.65;102051.25;7350336;19;128198;-57
2022/03/14 05:19:15;;;;;;;0.77;0.40;;;;;;;20.63;30.33;102053.25;7348610;19;128282;-58
2022/03/14 05:21:41;;;;;;;1.83;0.63;;;;;;;20.72;30.36;102057.44;7348150;19;128219;-59
2022/03/14 05:24:09;;;;;;;1.35;0.50;;;;;;;20.77;30.44;102055.91;7348785;19;128579;-57
2022/03/14 05:26:36;;;;;;;1.13;0.60;;;;;;;20.80;30.21;102056.28;7347450;19;127726;-58
2022/03/14 05:29:03;;;;;;;2.00;0.60;;;;;;;20.82;30.19;102069.97;7347668;19;129906;-56
2022/03/14 05:31:30;;;;;;;0.73;0.50;;;;;;;20.83;30.13;102064.16;7349032;19;129490;-56
2022/03/14 05:33:57;;;;;;;0.70;0.40;;;;;;;20.82;30.15;102064.41;7348770;19;128429;-58
2022/03/14 05:36:24;;;;;;;0.63;0.50;;;;;;;20.81;30.36;102077.44;7350077;19;128451;-58
2022/03/14 05:38:50;;;;;;;1.02;0.50;;;;;;;20.78;30.02;102075.16;7348389;19;128280;-58
2022/03/14 05:41:17;;;;;;;1.13;0.50;;;;;;;20.75;29.96;102075.59;7347992;19;130212;-58
2022/03/14 05:43:44;;;;;;;0.95;0.40;;;;;;;20.74;29.98;102076.66;7348017;19;128383;-57
2022/03/14 05:46:10;;;;;;;2.13;0.50;;;;;;;20.70;30.43;102072.66;7346482;19;128003;-57
2022/03/14 05:48:37;;;;;;;1.02;0.40;;;;;;;20.68;30.24;102078.44;7346586;19;128924;-58
2022/03/14 05:51:07;;;;;;;1.50;0.50;;;;;;;20.64;30.42;102079.97;7346812;19;128645;-57
2022/03/14 05:53:34;;;;;;;0.63;0.50;;;;;;;20.61;29.99;102094.38;7346300;19;128254;-56
2022/03/14 05:56:01;;;;;;;0.80;0.32;;;;;;;20.57;30.53;102087.56;7345422;19;128324;-57
2022/03/14 05:58:27;;;;;;;0.70;0.50;;;;;;;20.53;30.21;102097.44;7347381;19;128843;-58
2022/03/14 06:00:54;;;;;;;1.20;0.50;;;;;;;20.49;30.28;102099.84;7347431;19;131445;-57
2022/03/14 06:03:21;;;;;;;0.57;0.40;;;;;;;20.44;30.75;102110.78;7349128;19;129097;-57
2022/03/14 06:05:49;;;;;;;0.40;0.40;;;;;;;20.39;30.26;102114.25;7352407;19;128414;-57
2022/03/14 06:08:17;;;;;;;1.15;0.40;;;;;;;20.37;30.56;102121.13;7354172;19;128824;-57
2022/03/14 06:10:45;;;;;;;0.43;0.40;;;;;;;20.34;30.42;102129.91;7353311;19;128697;-56
2022/03/14 06:13:13;;;;;;;0.93;0.43;;;;;;;20.30;30.66;102126.75;7354368;19;128213;-57
2022/03/14 06:15:40;;;;;;;1.92;0.50;;;;;;;20.26;30.46;102125.50;7354834;19;129121;-57
2022/03/14 06:18:07;;;;;;;1.20;0.38;;;;;;;20.22;30.97;102125.13;7354164;19;128414;-58
2022/03/14 06:20:34;;;;;;;1.40;0.52;;;;;;;20.20;30.52;102138.38;7352878;19;129548;-56
2022/03/14 06:23:01;;;;;;;1.45;0.57;;;;;;;20.19;31.10;102139.44;7352268;19;128034;-52
2022/03/14 06:25:29;;;;;;;3.83;0.80;;;;;;;20.17;30.71;102144.41;7353807;19;129151;-53
2022/03/14 06:27:55;;;;;;;1.08;0.60;;;;;;;20.17;30.76;102151.88;7353109;19;128453;-55
2022/03/14 06:30:23;;;;;;;3.53;1.17;;;;;;;20.14;31.03;102159.59;7353260;19;128707;-53
2022/03/14 06:32:50;;;;;;;3.20;0.80;;;;;;;20.12;31.17;102158.13;7355461;19;128008;-55
2022/03/14 06:35:18;;;;;;;4.28;1.15;;;;;;;20.10;30.84;102158.38;7353623;19;127690;-55
2022/03/14 06:37:45;;;;;;;3.05;0.80;;;;;;;20.08;31.31;102162.41;7352814;19;128265;-55
2022/03/14 06:40:12;;;;;;;3.45;1.05;;;;;;;20.04;31.36;102167.59;7350698;19;128284;-54
2022/03/14 06:42:41;;;;;;;5.10;0.90;;;;;;;20.02;31.46;102178.06;7353101;19;130428;-55
2022/03/14 06:45:09;;;;;;;3.88;1.10;;;;;;;20.02;31.14;102182.78;7352606;19;129230;-54
2022/03/14 06:47:38;;;;;;;6.15;1.13;;;;;;;19.99;31.40;102187.72;7350793;19;128782;-54
2022/03/14 06:50:10;;;;;;;3.15;1.10;;;;;;;19.97;31.60;102184.28;7353761;19;128228;-54
2022/03/14 06:52:37;;;;;;;4.30;0.90;;;;;;;19.96;31.08;102190.91;7352790;19;128139;-55
2022/03/14 06:55:05;;;;;;;3.38;1.00;;;;;;;19.94;31.48;102190.25;7353465;19;127630;-56
2022/03/14 06:57:32;;;;;;;6.25;1.00;;;;;;;19.90;31.56;102186.25;7352103;19;129238;-50
2022/03/14 06:59:59;;;;;;;4.95;1.00;;;;;;;19.89;31.43;102192.88;7352700;19;129878;-54
2022/03/14 07:02:27;;;;;;;3.53;1.00;;;;;;;19.87;31.49;102197.81;7353258;19;128325;-52
2022/03/14 07:04:54;;;;;;;3.60;1.85;;;;;;;19.87;31.67;102205.28;7350785;19;128593;-55
2022/03/14 07:07:21;;;;;;;3.67;1.17;;;;;;;19.84;31.70;102206.56;7350348;19;132787;-53
2022/03/14 07:09:48;;;;;;;3.40;1.00;;;;;;;19.82;31.97;102200.38;7352737;19;128361;-54
2022/03/14 07:12:15;;;;;;;3.70;1.05;;;;;;;19.80;31.69;102211.72;7350972;19;127639;-53
2022/03/14 07:14:41;;;;;;;4.82;1.50;;;;;;;19.79;32.14;102214.75;7342476;19;128477;-56
2022/03/14 07:17:08;;;;;;;3.95;1.17;;;;;;;19.79;31.90;102228.63;7345972;19;129664;-54
2022/03/14 07:19:36;;;;;;;5.13;1.27;;;;;;;19.77;32.08;102228.00;7330924;19;128936;-55
2022/03/14 07:22:03;;;;;;;7.97;1.45;;;;;;;19.77;32.19;102222.44;7349521;19;129633;-49
2022/03/14 07:24:31;;;;;;;6.88;1.23;;;;;;;19.75;32.22;102232.91;7340327;19;129383;-59
2022/03/14 07:26:58;;;;;;;2.70;1.00;;;;;;;19.73;32.01;102226.72;7330455;19;129502;-50
2022/03/14 07:29:24;;;;;;;7.50;1.35;;;;;;;19.73;32.12;102223.94;7340333;19;129443;-56
2022/03/14 07:31:51;;;;;;;5.93;1.52;;;;;;;19.73;32.40;102226.72;7342806;19;129589;-52
2022/03/14 07:34:18;;;;;;;6.00;1.20;;;;;;;19.72;32.05;102236.13;7332473;19;129040;-52
2022/03/14 07:36:45;;;;;;;6.03;1.38;;;;;;;19.73;32.45;102243.38;7324859;19;129605;-46
2022/03/14 07:39:12;;;;;;;5.20;1.52;;;;;;;19.75;32.48;102235.69;7328756;19;130079;-50
2022/03/14 07:41:40;;;;;;;7.03;1.42;;;;;;;19.75;32.12;102242.09;7332979;19;129486;-53
2022/03/14 07:44:06;;;;;;;6.32;1.45;;;;;;;19.76;32.50;102241.00;7329228;19;128993;-50
2022/03/14 07:46:34;;;;;;;3.75;1.15;;;;;;;19.77;32.46;102247.44;7330030;19;130563;-55
2022/03/14 07:49:02;;;;;;;8.07;1.60;;;;;;;19.78;32.08;102254.69;7336228;19;128536;-51
2022/03/14 07:51:29;;;;;;;7.88;1.30;;;;;;;19.79;32.07;102250.84;7342372;19;129048;-56
2022/03/14 07:53:56;;;;;;;5.88;1.40;;;;;;;19.80;32.23;102249.75;7325144;19;128642;-51
2022/03/14 07:56:23;;;;;;;6.90;1.40;;;;;;;19.81;32.23;102262.59;7330013;19;130002;-50
2022/03/14 07:58:49;;;;;;;6.63;1.45;;;;;;;19.79;31.99;102271.13;7333123;19;129307;-56
2022/03/14 08:01:19;;;;;;;8.52;1.50;;;;;;;19.79;32.11;102264.72;7331767;19;130429;-50
2022/03/14 08:03:46;;;;;;;4.95;1.70;;;;;;;19.78;32.42;102268.56;7335369;19;129017;-51
2022/03/14 08:06:18;;;;;;;7.20;1.67;;;;;;;19.78;32.16;102271.34;7330924;19;129713;-48
2022/03/14 08:08:45;;;;;;;3.13;1.20;;;;;;;19.77;32.27;102283.53;7333957;19;130164;-48
2022/03/14 08:11:13;;;;;;;6.97;1.38;;;;;;;19.75;32.02;102292.09;7333380;19;128958;-50
2022/03/14 08:13:39;;;;;;;5.63;1.50;;;;;;;19.74;32.01;102300.63;7339927;19;128931;-54
2022/03/14 08:16:12;;;;;;;3.75;1.42;;;;;;;19.69;32.01;102295.72;7343111;19;128556;-52
2022/03/14 08:18:40;;;;;;;5.07;1.60;;;;;;;19.69;32.18;102293.78;7342704;19;129701;-54
2022/03/14 08:21:07;;;;;;;7.32;1.98;;;;;;;19.68;32.30;102302.34;7340361;19;128381;-49
2022/03/14 08:23:35;;;;;;;4.78;1.55;;;;;;;19.66;32.00;102298.94;7315151;19;129979;-47
2022/03/14 08:26:02;;;;;;;4.53;1.30;;;;;;;19.89;32.22;102290.09;7308753;19;130969;-52
2022/03/14 08:28:31;;;;;;;5.15;1.98;;;;;;;20.72;30.87;102291.03;7309191;19;129533;-49
2022/03/14 08:30:58;;;;;;;3.70;1.23;;;;;;;20.55;31.16;102296.31;7311515;19;130070;-53
2022/03/14 08:33:27;;;;;;;6.50;1.50;;;;;;;20.63;31.15;102308.22;7312163;19;129684;-51
2022/03/14 08:35:58;;;;;;;6.63;1.70;;;;;;;20.64;31.11;102307.97;7311750;19;131933;-53
2022/03/14 08:38:25;;;;;;;5.78;1.33;;;;;;;20.54;31.19;102305.75;7312871;19;129986;-50
2022/03/14 08:40:52;;;;;;;4.32;1.40;;;;;;;20.50;30.89;102310.03;7311760;19;129421;-49
2022/03/14 08:43:19;;;;;;;3.45;1.35;;;;;;;20.48;30.90;102311.34;7309847;19;129594;-52
2022/03/14 08:45:46;;;;;;;4.07;1.50;;;;;;;20.41;30.68;102316.94;7310768;19;129874;-49
2022/03/14 08:48:12;;;;;;;2.63;1.30;;;;;;;20.35;30.98;102323.38;7309871;19;130511;-53
2022/03/14 08:50:40;;;;;;;5.20;1.70;;;;;;;20.27;31.19;102328.16;7310873;19;130878;-51
2022/03/14 08:53:07;;;;;;;5.10;1.67;;;;;;;20.21;31.25;102340.16;7311660;19;130123;-52
2022/03/14 08:55:35;;;;;;;5.00;1.70;;;;;;;20.14;31.41;102328.22;7311369;19;129623;-49
2022/03/14 08:58:03;;;;;;;6.63;1.70;;;;;;;20.08;31.50;102334.66;7310125;19;131325;-50
2022/03/14 09:00:30;;;;;;;8.75;2.00;;;;;;;20.01;31.10;102333.84;7308501;19;130786;-45
2022/03/14 09:02:57;;;;;;;5.85;1.77;;;;;;;19.95;31.14;102339.19;7308949;19;129217;-43
2022/03/14 09:05:24;;;;;;;6.38;1.50;;;;;;;19.90;31.36;102350.13;7308289;19;130676;-45
2022/03/14 09:07:52;;;;;;;2.97;1.20;;;;;;;19.84;31.35;102362.09;7305419;19;130135;-46
2022/03/14 09:10:19;;;;;;;7.95;1.90;;;;;;;19.80;31.74;102370.00;7308200;19;130101;-48
2022/03/14 09:12:48;;;;;;;7.90;1.73;;;;;;;19.78;31.39;102383.25;7309468;19;130430;-47
2022/03/14 09:15:15;;;;;;;4.18;1.95;;;;;;;19.73;31.66;102376.66;7308710;19;131197;-45
2022/03/14 09:17:54;;;;;;;3.55;1.30;;;;;;;19.69;31.80;102379.88;7307960;19;129809;-45
2022/03/14 09:20:21;;;;;;;4.80;1.40;;;;;;;19.66;31.71;102393.34;7310462;19;129065;-44
2022/03/14 09:22:49;;;;;;;5.40;1.60;;;;;;;19.62;31.64;102397.63;7309490;19;129498;-46
2022/03/14 09:25:18;;;;;;;4.05;1.48;;;;;;;19.58;31.60;102390.81;7308647;19;129591;-46
2022/03/14 09:27:47;;;;;;;3.47;1.33;;;;;;;19.55;31.80;102397.66;7306309;19;129859;-45
2022/03/14 09:30:15;;;;;;;8.18;1.63;;;;;;;19.54;31.92;102395.94;7308634;19;129149;-44
2022/03/14 09:32:42;;;;;;;4.28;1.40;;;;;;;19.51;31.81;102410.25;7308471;19;129908;-46
2022/03/14 09:35:10;;;;;;;4.75;1.30;;;;;;;19.50;31.74;102416.88;7310102;19;130677;-48
2022/03/14 09:37:39;;;;;;;4.47;1.45;;;;;;;19.48;31.85;102419.00;7307437;19;129508;-46
2022/03/14 09:40:08;;;;;;;6.97;1.63;;;;;;;19.44;32.05;102421.34;7318807;19;129356;-47
2022/03/14 09:42:38;;;;;;;3.42;1.30;;;;;;;19.45;31.97;102424.97;7322473;19;129419;-46
2022/03/14 09:45:06;;;;;;;6.05;1.55;;;;;;;19.43;31.59;102429.91;7324031;19;131881;-45
2022/03/14 09:47:55;;;;;;;4.03;1.40;;;;;;;19.42;31.70;102422.66;7321489;19;130490;-48
2022/03/14 09:50:32;;;;;;;3.80;1.30;;;;;;;19.41;32.06;102426.50;7323453;19;130787;-45
2022/03/14 09:53:03;;;;;;;6.00;1.30;;;;;;;19.37;32.04;102438.00;7323594;19;129490;-48
2022/03/14 09:55:30;;;;;;;9.07;1.63;;;;;;;19.36;32.01;102430.75;7322919;19;129587;-45
2022/03/14 09:57:57;;;;;;;5.10;1.60;;;;;;;19.35;32.14;102448.47;7322379;19;129597;-45
2022/03/14 10:00:23;;;;;;;2.47;1.15;;;;;;;19.35;31.80;102456.78;7324575;19;129526;-45
2022/03/14 10:02:50;;;;;;;3.85;0.95;;;;;;;19.33;31.86;102456.16;7321999;19;130267;-45
2022/03/14 10:05:17;;;;;;;5.38;1.73;;;;;;;19.33;31.74;102463.63;7321850;19;130201;-44
2022/03/14 10:07:45;;;;;;;7.20;1.50;;;;;;;19.31;31.89;102463.00;7322097;19;130264;-45
2022/03/14 10:10:13;;;;;;;5.68;1.50;;;;;;;19.30;32.23;102470.47;7323470;19;128977;-46
2022/03/14 10:12:42;;;;;;;3.10;1.50;;;;;;;19.29;32.16;102477.09;7323609;19;129600;-44
2022/03/14 10:15:10;;;;;;;4.47;1.55;;;;;;;19.28;32.21;102486.47;7322735;19;130590;-46
2022/03/14 10:17:37;;;;;;;5.65;1.52;;;;;;;19.27;32.00;102487.53;7323466;19;129618;-46
2022/03/14 10:20:06;;;;;;;5.90;1.30;;;;;;;19.26;32.13;102485.84;7320445;19;128917;-45
2022/03/14 10:22:38;;;;;;;3.65;1.25;;;;;;;19.25;32.04;102489.66;7322716;19;129732;-45
2022/03/14 10:25:10;;;;;;;4.15;1.52;;;;;;;19.25;31.87;102492.44;7321931;19;129577;-45
2022/03/14 10:27:39;;;;;;;8.25;1.83;;;;;;;19.24;31.80;102501.84;7320751;19;130123;-48
2022/03/14 10:30:21;;;;;;;4.93;1.50;;;;;;;19.23;32.07;102497.34;7322362;19;129879;-47
2022/03/14 10:32:49;;;;;;;5.72;1.65;;;;;;;19.22;32.23;102493.72;7319695;19;130042;-45
2022/03/14 10:35:21;;;;;;;9.90;1.50;;;;;;;19.22;31.86;102493.72;7321779;19;130473;-45
2022/03/14 10:37:58;;;;;;;4.07;1.60;;;;;;;19.24;31.76;102493.50;7322345;19;130527;-44
2022/03/14 10:40:33;;;;;;;4.78;1.23;;;;;;;19.25;32.19;102492.44;7322305;19;129383;-45
2022/03/14 10:43:01;;;;;;;3.60;1.13;;;;;;;19.25;31.79;102497.16;7323412;19;129684;-45
2022/03/14 10:45:31;;;;;;;4.20;1.35;;;;;;;19.26;32.18;102505.25;7322101;19;129619;-45
2022/03/14 10:48:01;;;;;;;6.10;1.55;;;;;;;19.27;31.87;102504.19;7320723;19;131133;-49
2022/03/14 10:50:37;;;;;;;4.60;1.20;;;;;;;19.28;31.70;102503.13;7321501;19;129536;-47
2022/03/14 10:53:21;;;;;;;5.35;1.42;;;;;;;19.30;31.81;102505.69;7312758;19;129939;-45
2022/03/14 10:55:56;;;;;;;9.25;1.60;;;;;;;19.31;32.16;102512.94;7315605;19;130651;-45
2022/03/14 10:58:29;;;;;;;5.00;1.40;;;;;;;19.32;31.64;102509.94;7315965;19;129981;-44
2022/03/14 11:01:00;;;;;;;5.05;1.60;;;;;;;19.33;31.65;102516.38;7313581;19;130639;-44
2022/03/14 11:03:30;;;;;;;6.78;1.30;;;;;;;19.32;31.69;102515.50;7314887;19;128731;-47
2022/03/14 11:06:02;;;;;;;6.05;1.33;;;;;;;19.33;32.09;102514.44;7312195;19;130080;-46
2022/03/14 11:08:30;;;;;;;4.60;1.30;;;;;;;19.33;31.94;102508.88;7313104;19;130371;-48
2022/03/14 11:10:58;;;;;;;4.70;1.33;;;;;;;19.35;31.68;102514.25;7315637;19;128925;-47
2022/03/14 11:13:26;;;;;;;7.22;1.60;;;;;;;19.35;31.81;102515.06;7315141;19;130460;-46
2022/03/14 11:15:53;;;;;;;4.72;1.40;;;;;;;19.36;31.80;102525.09;7315234;19;129558;-44
2022/03/14 11:18:21;;;;;;;3.95;1.05;;;;;;;19.35;31.86;102520.63;7312012;19;129468;-49
2022/03/14 11:20:48;;;;;;;4.07;1.48;;;;;;;19.35;31.74;102514.25;7311907;19;129960;-46